Time;durP1;ratioP1;P1;durP2;ratioP2;P2;SDS_P1;SDS_P2;PMS_P1;PMS_P2;Temp;Humidity;BMP_temperature;BMP_pressure;BME280_temperature;BME280_humidity;BME280_pressure;Samples;Min_cycle;Max_cycle;Signal;HPM_P1;HPM_P2
2022/05/28 00:01:43;;;;;;;7.67;1.57;;;12.00;1.00;;;;;;5061388;28;20675;-69
2022/05/28 00:04:13;;;;;;;8.37;1.80;;;12.00;1.00;;;;;;5063030;28;20214;-69
2022/05/28 00:06:40;;;;;;;11.63;1.77;;;12.00;1.00;;;;;;5062746;28;20198;-69
2022/05/28 00:09:07;;;;;;;5.97;1.57;;;12.00;1.00;;;;;;5056990;28;20199;-69
2022/05/28 00:11:36;;;;;;;8.00;1.53;;;12.00;1.00;;;;;;5071823;28;20214;-69
2022/05/28 00:14:04;;;;;;;7.30;1.60;;;12.00;1.00;;;;;;5073879;28;20211;-69
2022/05/28 00:16:31;;;;;;;7.47;1.50;;;12.00;1.00;;;;;;5058754;28;20221;-69
2022/05/28 00:19:00;;;;;;;7.00;1.57;;;11.90;1.00;;;;;;5070755;28;20197;-69
2022/05/28 00:21:27;;;;;;;6.97;1.63;;;12.00;1.00;;;;;;5052442;28;20207;-69
2022/05/28 00:23:54;;;;;;;10.83;2.47;;;11.90;1.10;;;;;;5055206;28;20191;-69
2022/05/28 00:26:22;;;;;;;9.27;1.90;;;12.00;1.00;;;;;;5064884;28;20209;-70
2022/05/28 00:28:50;;;;;;;6.83;2.00;;;11.90;99.90;;;;;;5073792;28;20591;-69
2022/05/28 00:31:17;;;;;;;10.37;1.93;;;11.90;99.90;;;;;;5091492;28;20202;-69
2022/05/28 00:33:44;;;;;;;6.40;1.67;;;11.90;99.90;;;;;;5089269;28;20206;-69
2022/05/28 00:36:14;;;;;;;10.30;1.53;;;11.90;99.90;;;;;;5072025;28;20233;-69
2022/05/28 00:38:43;;;;;;;5.90;1.53;;;11.90;99.90;;;;;;5065406;28;20214;-69
2022/05/28 00:41:12;;;;;;;9.30;2.30;;;11.90;99.90;;;;;;5061416;28;20210;-69
2022/05/28 00:43:41;;;;;;;5.83;2.07;;;11.90;99.90;;;;;;5053774;28;20207;-69
2022/05/28 00:46:12;;;;;;;6.73;1.40;;;12.00;99.90;;;;;;5065820;28;20590;-69
2022/05/28 00:48:44;;;;;;;6.40;1.77;;;11.90;99.90;;;;;;5064269;28;20395;-69
2022/05/28 00:51:16;;;;;;;7.30;2.07;;;11.90;99.90;;;;;;5051182;28;20202;-69
2022/05/28 00:53:43;;;;;;;7.57;2.50;;;11.90;99.90;;;;;;5069304;28;20208;-69
2022/05/28 00:56:11;;;;;;;5.30;1.93;;;12.00;99.90;;;;;;5068768;28;20209;-69
2022/05/28 00:58:38;;;;;;;6.13;1.53;;;12.00;99.90;;;;;;5079946;28;20565;-69
2022/05/28 01:01:08;;;;;;;5.83;1.60;;;11.90;99.90;;;;;;5065345;28;20207;-69
2022/05/28 01:03:41;;;;;;;8.77;2.43;;;11.90;99.90;;;;;;5050941;28;20210;-69
2022/05/28 01:06:18;;;;;;;7.70;1.73;;;11.90;99.90;;;;;;5061829;28;20264;-70
2022/05/28 01:08:51;;;;;;;7.00;1.23;;;11.90;99.90;;;;;;5058014;28;20221;-69
2022/05/28 01:11:24;;;;;;;7.17;1.77;;;11.90;1.00;;;;;;5059853;28;20241;-69
2022/05/28 01:13:58;;;;;;;9.07;2.17;;;11.80;1.00;;;;;;5061740;28;20206;-69
2022/05/28 01:16:30;;;;;;;9.67;1.70;;;11.80;1.00;;;;;;5057770;28;20209;-69
2022/05/28 01:19:01;;;;;;;6.17;1.50;;;11.70;1.00;;;;;;5062110;28;20554;-69
2022/05/28 01:21:40;;;;;;;5.57;1.60;;;11.50;1.00;;;;;;5067883;28;20207;-70
2022/05/28 01:24:18;;;;;;;6.10;1.30;;;11.60;1.00;;;;;;5057865;28;20570;-69
2022/05/28 01:26:53;;;;;;;6.33;1.53;;;11.60;1.00;;;;;;5073453;28;20203;-69
2022/05/28 01:29:22;;;;;;;6.10;1.77;;;11.60;1.00;;;;;;5063145;28;20642;-69
2022/05/28 01:31:50;;;;;;;6.07;1.10;;;11.60;1.00;;;;;;5056887;28;20197;-70
2022/05/28 01:34:20;;;;;;;5.63;1.90;;;11.60;1.00;;;;;;5069405;28;20195;-69
2022/05/28 01:36:49;;;;;;;8.87;2.10;;;11.60;1.00;;;;;;5063035;28;20229;-70
2022/05/28 01:39:18;;;;;;;5.57;1.60;;;11.60;1.00;;;;;;5070446;28;20202;-69
2022/05/28 01:41:48;;;;;;;7.20;1.70;;;11.60;1.00;;;;;;5066139;28;20214;-69
2022/05/28 01:44:16;;;;;;;7.87;2.47;;;11.60;1.00;;;;;;5092178;28;20558;-69
2022/05/28 01:46:47;;;;;;;6.37;1.60;;;11.60;1.00;;;;;;5067455;28;20219;-69
2022/05/28 01:49:17;;;;;;;8.10;2.03;;;11.50;11.30;;;;;;5083231;28;20202;-69
2022/05/28 01:51:49;;;;;;;6.37;1.40;;;11.30;81.80;;;;;;5074807;28;20672;-69
2022/05/28 01:54:18;;;;;;;2.70;0.90;;;11.00;84.80;;;;;;5076385;28;20205;-69
2022/05/28 01:56:50;;;;;;;1.97;0.80;;;10.80;1.00;;;;;;5067349;28;20218;-71
2022/05/28 01:59:22;;;;;;;4.33;1.10;;;10.70;23.70;;;;;;5073697;28;20619;-71
2022/05/28 02:01:50;;;;;;;1.60;1.07;;;10.70;49.60;;;;;;5068692;28;20194;-72
2022/05/28 02:04:17;;;;;;;4.93;1.30;;;10.60;83.20;;;;;;5074697;28;20202;-72
2022/05/28 02:06:44;;;;;;;2.23;0.80;;;10.60;99.90;;;;;;5072569;28;20228;-72
2022/05/28 02:09:15;;;;;;;3.53;0.80;;;10.50;99.90;;;;;;5072286;28;20210;-73
2022/05/28 02:11:59;;;;;;;3.57;0.80;;;10.40;99.90;;;;;;5074442;28;20208;-72
2022/05/28 02:14:33;;;;;;;3.90;0.97;;;10.20;99.90;;;;;;5067575;28;20206;-72
2022/05/28 02:17:09;;;;;;;4.23;1.00;;;10.20;99.90;;;;;;5073765;28;20196;-72
2022/05/28 02:19:48;;;;;;;0.73;0.67;;;10.00;99.90;;;;;;5070148;28;20244;-72
2022/05/28 02:22:21;;;;;;;3.50;0.90;;;10.10;99.90;;;;;;5072500;28;20198;-72
2022/05/28 02:24:54;;;;;;;2.97;0.80;;;10.10;99.90;;;;;;5071078;28;20203;-72
2022/05/28 02:27:25;;;;;;;2.27;1.33;;;10.10;99.90;;;;;;5079038;28;20233;-72
2022/05/28 02:29:52;;;;;;;7.50;1.60;;;10.00;99.90;;;;;;5071881;28;20394;-71
2022/05/28 02:32:22;;;;;;;4.40;1.13;;;10.00;99.90;;;;;;5062270;28;20564;-72
2022/05/28 02:34:50;;;;;;;3.73;1.30;;;10.00;99.90;;;;;;5071423;28;20206;-72
2022/05/28 02:37:22;;;;;;;5.73;1.60;;;10.00;99.90;;;;;;5068542;28;20657;-72
2022/05/28 02:39:49;;;;;;;3.47;1.20;;;10.00;99.90;;;;;;5062187;28;20206;-72
2022/05/28 02:42:15;;;;;;;5.63;1.60;;;10.00;99.90;;;;;;5084098;28;20645;-72
2022/05/28 02:44:44;;;;;;;3.43;1.07;;;10.00;99.90;;;;;;5072612;28;20202;-72
2022/05/28 02:47:11;;;;;;;6.13;1.73;;;10.00;99.90;;;;;;5072972;28;20218;-72
2022/05/28 02:49:38;;;;;;;5.00;1.40;;;10.00;99.90;;;;;;5065568;28;20203;-72
2022/05/28 02:52:06;;;;;;;4.17;1.63;;;10.10;99.90;;;;;;5085130;28;20198;-72
2022/05/28 02:54:34;;;;;;;5.53;1.60;;;10.10;99.90;;;;;;5070311;28;20221;-72
2022/05/28 02:57:01;;;;;;;7.50;1.80;;;10.10;99.90;;;;;;5076521;28;20657;-72
2022/05/28 02:59:28;;;;;;;4.17;1.50;;;10.10;99.90;;;;;;5059396;28;20563;-72
2022/05/28 03:01:56;;;;;;;7.67;2.17;;;10.10;99.90;;;;;;5088297;28;20224;-72
2022/05/28 03:04:23;;;;;;;5.83;1.63;;;10.00;99.90;;;;;;5053577;28;20206;-72
2022/05/28 03:06:52;;;;;;;7.50;1.80;;;10.00;99.90;;;;;;5070626;28;20680;-72
2022/05/28 03:09:18;;;;;;;5.33;2.20;;;9.90;99.90;;;;;;5058517;28;20256;-72
2022/05/28 03:11:45;;;;;;;8.43;2.23;;;9.90;99.90;;;;;;5079293;28;20534;-72
2022/05/28 03:14:12;;;;;;;7.80;1.80;;;9.90;99.90;;;;;;5085613;28;20206;-72
2022/05/28 03:16:40;;;;;;;7.20;2.00;;;10.00;99.90;;;;;;5068574;28;20232;-72
2022/05/28 03:19:08;;;;;;;5.60;1.80;;;10.10;99.90;;;;;;5058996;28;20299;-72
2022/05/28 03:21:34;;;;;;;7.43;2.53;;;10.10;99.90;;;;;;5074149;28;20202;-72
2022/05/28 03:24:02;;;;;;;10.03;2.10;;;10.20;99.90;;;;;;5081529;28;20210;-72
2022/05/28 03:26:30;;;;;;;6.53;1.77;;;10.20;99.90;;;;;;5064741;28;20289;-72
2022/05/28 03:28:58;;;;;;;8.87;2.70;;;10.30;99.90;;;;;;5052069;28;20206;-72
2022/05/28 03:31:26;;;;;;;6.93;1.97;;;10.30;99.90;;;;;;5067784;28;20216;-71
2022/05/28 03:33:53;;;;;;;9.13;1.93;;;10.20;99.90;;;;;;5061017;28;20194;-72
2022/05/28 03:36:22;;;;;;;8.63;1.97;;;10.20;99.90;;;;;;5071977;28;20210;-72
2022/05/28 03:38:49;;;;;;;7.40;1.80;;;10.20;99.90;;;;;;5062087;28;20202;-72
2022/05/28 03:41:16;;;;;;;7.20;1.47;;;10.20;99.90;;;;;;5061349;28;20190;-72
2022/05/28 03:43:43;;;;;;;6.80;1.63;;;10.20;99.90;;;;;;5062660;28;20661;-72
2022/05/28 03:46:21;;;;;;;7.40;1.80;;;10.10;99.90;;;;;;5072622;28;20565;-72
2022/05/28 03:48:48;;;;;;;8.93;1.80;;;10.10;99.90;;;;;;5062259;28;20269;-72
2022/05/28 03:51:15;;;;;;;10.40;1.97;;;10.20;99.90;;;;;;5057145;28;20203;-72
2022/05/28 03:53:43;;;;;;;8.47;1.73;;;10.10;99.90;;;;;;5051510;28;20228;-72
2022/05/28 03:56:10;;;;;;;9.60;2.23;;;10.20;99.90;;;;;;5065550;28;20210;-72
2022/05/28 03:58:37;;;;;;;8.17;2.57;;;10.30;99.90;;;;;;5069930;28;20198;-72
2022/05/28 04:01:04;;;;;;;4.73;1.70;;;10.40;99.90;;;;;;5079814;28;20221;-72
2022/05/28 04:03:31;;;;;;;11.03;2.20;;;11.00;99.90;;;;;;5079037;28;20664;-72
2022/05/28 04:05:58;;;;;;;5.63;1.77;;;11.20;99.90;;;;;;5070513;28;20256;-72
2022/05/28 04:08:25;;;;;;;6.10;1.67;;;10.80;99.90;;;;;;5072210;28;20221;-72
2022/05/28 04:10:53;;;;;;;5.40;1.60;;;10.70;99.90;;;;;;5073072;28;20201;-72
2022/05/28 04:13:20;;;;;;;6.10;1.83;;;10.60;99.90;;;;;;5083420;28;20202;-72
2022/05/28 04:15:50;;;;;;;7.47;1.40;;;10.60;99.90;;;;;;5063994;28;20198;-72
2022/05/28 04:18:16;;;;;;;8.07;1.80;;;10.80;99.90;;;;;;5065378;28;20199;-72
2022/05/28 04:20:43;;;;;;;7.63;2.20;;;11.00;99.90;;;;;;5057881;28;20212;-72
2022/05/28 04:23:10;;;;;;;7.10;1.37;;;11.00;99.90;;;;;;5085776;28;20809;-72
2022/05/28 04:25:37;;;;;;;7.30;1.67;;;11.30;99.90;;;;;;5071971;28;20202;-72
2022/05/28 04:28:06;;;;;;;4.47;1.50;;;11.40;25.10;;;;;;5084661;28;20272;-72
2022/05/28 04:30:33;;;;;;;7.47;1.80;;;11.60;30.20;;;;;;5052221;28;20607;-72
2022/05/28 04:32:59;;;;;;;4.47;1.30;;;11.30;12.80;;;;;;5090694;28;20397;-72
2022/05/28 04:35:26;;;;;;;12.50;2.13;;;11.00;59.60;;;;;;5064772;28;20217;-72
2022/05/28 04:37:53;;;;;;;5.10;1.57;;;11.20;70.10;;;;;;5074998;28;20659;-72
2022/05/28 04:40:20;;;;;;;9.90;1.93;;;11.00;45.10;;;;;;5071087;28;20202;-72
2022/05/28 04:42:47;;;;;;;5.90;1.93;;;11.20;13.70;;;;;;5072360;28;20637;-72
2022/05/28 04:45:15;;;;;;;8.77;1.80;;;11.20;36.90;;;;;;5065412;28;20209;-72
2022/05/28 04:47:42;;;;;;;6.20;1.53;;;11.20;19.50;;;;;;5063333;28;20219;-72
2022/05/28 04:50:09;;;;;;;8.03;1.80;;;11.10;43.10;;;;;;5068152;28;20202;-72
2022/05/28 04:52:38;;;;;;;8.27;1.60;;;11.20;92.90;;;;;;5066078;28;20222;-72
2022/05/28 04:55:05;;;;;;;10.43;2.57;;;11.20;99.90;;;;;;5060035;28;20214;-72
2022/05/28 04:57:32;;;;;;;6.30;1.93;;;11.10;99.90;;;;;;5057729;28;20199;-72
2022/05/28 04:59:59;;;;;;;8.87;1.90;;;11.00;99.90;;;;;;5060282;28;20202;-72
2022/05/28 05:02:28;;;;;;;9.37;1.53;;;11.00;99.90;;;;;;5068542;28;20226;-71
2022/05/28 05:04:56;;;;;;;8.70;1.87;;;10.90;99.90;;;;;;5064047;28;20202;-72
2022/05/28 05:07:23;;;;;;;11.70;2.33;;;11.00;99.90;;;;;;5066237;28;20226;-72
2022/05/28 05:09:50;;;;;;;9.77;1.77;;;11.20;95.70;;;;;;5063382;28;20804;-72
2022/05/28 05:12:17;;;;;;;8.80;1.40;;;11.30;5.50;;;;;;5061856;28;20213;-72
2022/05/28 05:14:44;;;;;;;6.80;1.60;;;11.20;12.60;;;;;;5067754;28;20209;-72
2022/05/28 05:17:11;;;;;;;7.40;2.17;;;11.10;15.00;;;;;;5063078;28;20203;-72
2022/05/28 05:19:39;;;;;;;8.10;1.70;;;11.30;1.00;;;;;;5070286;28;20203;-74
2022/05/28 05:22:06;;;;;;;6.97;1.60;;;11.50;1.00;;;;;;5064573;28;20203;-74
2022/05/28 05:24:33;;;;;;;7.90;1.50;;;11.50;1.00;;;;;;5068912;28;20621;-74
2022/05/28 05:27:00;;;;;;;6.53;2.20;;;12.20;1.00;;;;;;5063542;28;20312;-74
2022/05/28 05:29:27;;;;;;;5.40;1.83;;;12.20;1.00;;;;;;5066743;28;20218;-74
2022/05/28 05:31:54;;;;;;;7.73;1.50;;;12.30;1.00;;;;;;5063555;28;20224;-74
2022/05/28 05:34:21;;;;;;;6.70;1.90;;;12.10;1.00;;;;;;5066798;28;20198;-74
2022/05/28 05:36:50;;;;;;;9.63;1.40;;;12.00;1.00;;;;;;5064035;28;20662;-74
2022/05/28 05:39:16;;;;;;;6.07;1.73;;;12.10;1.00;;;;;;5065928;28;20198;-74
2022/05/28 05:41:44;;;;;;;8.47;2.27;;;12.00;1.00;;;;;;5068707;28;20402;-74
2022/05/28 05:44:12;;;;;;;8.43;1.93;;;12.10;1.00;;;;;;5066307;28;20283;-74
2022/05/28 05:46:40;;;;;;;6.60;1.80;;;12.30;1.00;;;;;;5063268;28;20206;-74
2022/05/28 05:49:08;;;;;;;10.67;1.87;;;12.50;1.00;;;;;;5070709;28;20275;-74
2022/05/28 05:51:38;;;;;;;7.73;2.00;;;12.10;1.00;;;;;;5068974;28;20288;-74
2022/05/28 05:54:06;;;;;;;10.97;2.63;;;12.00;1.00;;;;;;5064698;28;20198;-74
2022/05/28 05:56:33;;;;;;;11.30;1.83;;;11.80;1.00;;;;;;5070834;28;20660;-74
2022/05/28 05:59:00;;;;;;;9.53;1.90;;;11.90;1.00;;;;;;5070636;28;20201;-74
2022/05/28 06:01:27;;;;;;;4.60;1.90;;;11.80;1.00;;;;;;5065698;28;20202;-74
2022/05/28 06:03:54;;;;;;;8.60;1.87;;;11.80;1.00;;;;;;5064315;28;20234;-74
2022/05/28 06:06:21;;;;;;;4.10;1.57;;;11.80;1.00;;;;;;5064556;28;20618;-74
2022/05/28 06:08:48;;;;;;;4.63;1.60;;;11.90;1.00;;;;;;5070010;28;20582;-74
2022/05/28 06:11:17;;;;;;;5.73;1.33;;;12.00;1.00;;;;;;5073376;28;20202;-74
2022/05/28 06:13:44;;;;;;;3.73;1.30;;;12.10;1.00;;;;;;5066753;28;20211;-74
2022/05/28 06:16:11;;;;;;;10.37;2.13;;;12.20;1.00;;;;;;5062437;28;20199;-74
2022/05/28 06:18:38;;;;;;;5.40;1.60;;;12.30;1.00;;;;;;5070141;28;20213;-74
2022/05/28 06:21:05;;;;;;;10.00;1.70;;;12.40;1.00;;;;;;5066182;28;20202;-74
2022/05/28 06:23:32;;;;;;;7.63;1.90;;;12.40;1.00;;;;;;5063762;28;20214;-74
2022/05/28 06:25:59;;;;;;;8.63;1.57;;;12.30;1.00;;;;;;5061722;28;20206;-74
2022/05/28 06:28:27;;;;;;;4.47;1.63;;;12.30;1.00;;;;;;5069336;28;20221;-73
2022/05/28 06:30:59;;;;;;;6.23;1.60;;;12.50;1.00;;;;;;5061357;28;20201;-74
2022/05/28 06:33:26;;;;;;;7.77;1.50;;;12.60;1.00;;;;;;5060055;28;20203;-73
2022/05/28 06:35:56;;;;;;;6.60;1.63;;;12.60;1.00;;;;;;5071414;28;20221;-73
2022/05/28 06:38:23;;;;;;;6.30;1.40;;;12.40;1.00;;;;;;5060831;28;20210;-73
2022/05/28 06:40:50;;;;;;;8.97;2.23;;;12.30;1.00;;;;;;5070430;28;20677;-74
2022/05/28 06:43:16;;;;;;;7.73;2.00;;;12.40;1.00;;;;;;5062713;28;20203;-75
2022/05/28 06:45:45;;;;;;;7.27;1.97;;;12.50;1.00;;;;;;5065953;28;20579;-75
2022/05/28 06:48:12;;;;;;;5.63;1.70;;;12.10;1.00;;;;;;5062833;28;20222;-75
2022/05/28 06:53:35;;;;;;;6.37;1.57;;;12.10;1.00;;;;;;5036774;28;20684;-75
2022/05/28 06:56:01;;;;;;;7.17;2.00;;;12.00;1.00;;;;;;5065606;28;20656;-75
2022/05/28 06:58:28;;;;;;;8.50;2.00;;;12.00;1.00;;;;;;5066439;28;20210;-74
2022/05/28 07:00:57;;;;;;;5.30;1.70;;;12.00;1.00;;;;;;5058070;28;20206;-75
2022/05/28 07:03:25;;;;;;;8.57;1.93;;;11.90;1.00;;;;;;5065230;28;20690;-75
2022/05/28 07:05:52;;;;;;;8.23;2.10;;;12.00;1.00;;;;;;5059521;28;20253;-74
2022/05/28 07:08:19;;;;;;;9.87;1.80;;;12.30;1.00;;;;;;5064446;28;20229;-74
2022/05/28 07:10:48;;;;;;;9.70;2.27;;;12.20;1.00;;;;;;5061273;28;20214;-74
2022/05/28 07:13:16;;;;;;;6.93;2.27;;;12.20;1.00;;;;;;5071517;28;20201;-74
2022/05/28 07:15:43;;;;;;;8.20;2.07;;;12.50;1.00;;;;;;5063312;28;20202;-74
2022/05/28 07:18:11;;;;;;;8.93;1.70;;;12.80;99.90;;;;;;5062784;28;20198;-74
2022/05/28 07:20:38;;;;;;;7.63;1.83;;;12.70;1.00;;;;;;5072474;28;20208;-74
2022/05/28 07:23:11;;;;;;;9.60;1.67;;;12.80;1.00;;;;;;5066110;28;20560;-74
2022/05/28 07:25:38;;;;;;;8.37;2.20;;;12.60;1.00;;;;;;5064174;28;20578;-74
2022/05/28 07:28:24;;;;;;;7.97;2.57;;;12.50;1.00;;;;;;5067624;28;20222;-74
2022/05/28 07:30:51;;;;;;;6.63;1.63;;;12.40;1.00;;;;;;5069643;28;20543;-74
2022/05/28 07:33:19;;;;;;;9.03;2.10;;;12.40;1.00;;;;;;5062557;28;20211;-75
2022/05/28 07:35:46;;;;;;;16.13;2.43;;;12.50;99.90;;;;;;5065320;28;20221;-74
2022/05/28 07:38:14;;;;;;;6.20;2.43;;;12.60;80.10;;;;;;5064986;28;20548;-74
2022/05/28 07:40:40;;;;;;;7.53;2.63;;;12.50;41.20;;;;;;5063653;28;20202;-74
2022/05/28 07:43:08;;;;;;;7.53;1.80;;;12.50;49.40;;;;;;5063175;28;20198;-74
2022/05/28 07:45:40;;;;;;;8.60;1.97;;;12.50;1.00;;;;;;5062454;28;20234;-75
2022/05/28 07:48:08;;;;;;;6.87;2.13;;;12.70;1.00;;;;;;5068655;28;20332;-74
2022/05/28 07:50:36;;;;;;;7.63;1.90;;;12.80;1.00;;;;;;5062115;28;20202;-74
2022/05/28 07:53:03;;;;;;;7.57;1.93;;;13.00;1.00;;;;;;5065442;28;20199;-74
2022/05/28 07:55:31;;;;;;;7.60;2.07;;;13.20;1.00;;;;;;5066819;28;20207;-74
2022/05/28 07:57:58;;;;;;;4.87;1.80;;;13.10;99.90;;;;;;5060611;28;20202;-74
2022/05/28 08:00:25;;;;;;;6.20;1.80;;;13.20;1.00;;;;;;5062816;28;20200;-75
2022/05/28 08:02:51;;;;;;;6.33;1.80;;;13.20;99.90;;;;;;5063683;28;20209;-74
2022/05/28 08:05:18;;;;;;;5.10;1.63;;;13.30;1.00;;;;;;5069173;28;20211;-75
2022/05/28 08:07:46;;;;;;;6.70;2.00;;;13.30;1.00;;;;;;5062301;28;20252;-75
2022/05/28 08:10:13;;;;;;;10.13;1.90;;;13.10;1.00;;;;;;5063650;28;20426;-74
2022/05/28 08:12:40;;;;;;;6.20;1.83;;;12.90;99.90;;;;;;5063128;28;20220;-75
2022/05/28 08:15:08;;;;;;;5.10;1.70;;;12.80;1.00;;;;;;5058299;28;20203;-74
2022/05/28 08:17:35;;;;;;;7.90;2.00;;;12.90;99.90;;;;;;5059668;28;20199;-74
2022/05/28 08:20:02;;;;;;;9.13;1.97;;;13.00;1.00;;;;;;5060739;28;20198;-74
2022/05/28 08:25:14;;;;;;;5.33;2.10;;;12.60;99.90;;;;;;5059717;28;20210;-75
2022/05/28 08:27:41;;;;;;;7.30;2.50;;;12.70;1.00;;;;;;5063200;28;20203;-74
2022/05/28 08:30:09;;;;;;;5.00;1.60;;;13.00;99.90;;;;;;5068596;28;20222;-74
2022/05/28 08:32:35;;;;;;;7.03;1.70;;;13.10;99.90;;;;;;5061655;28;20210;-74
2022/05/28 08:35:02;;;;;;;10.60;2.63;;;13.30;99.90;;;;;;5061008;28;20204;-77
2022/05/28 08:37:29;;;;;;;6.33;1.73;;;13.40;99.90;;;;;;5058609;28;20206;-77
2022/05/28 08:39:56;;;;;;;7.00;2.00;;;13.30;1.00;;;;;;5063988;28;20222;-71
2022/05/28 08:42:28;;;;;;;7.03;1.73;;;13.50;99.90;;;;;;5055061;28;20211;-70
2022/05/28 08:44:56;;;;;;;10.67;2.50;;;13.90;1.00;;;;;;5062655;28;20209;-71
2022/05/28 08:47:28;;;;;;;8.27;1.80;;;14.30;23.10;;;;;;5059282;28;20210;-70
2022/05/28 08:49:55;;;;;;;4.27;1.50;;;14.60;99.90;;;;;;5059248;28;20227;-70
2022/05/28 08:52:27;;;;;;;7.63;2.13;;;14.60;1.00;;;;;;5063355;28;20201;-70
2022/05/28 08:54:58;;;;;;;4.73;1.60;;;14.40;1.00;;;;;;5078035;28;20202;-71
2022/05/28 08:57:37;;;;;;;7.17;2.47;;;14.40;99.80;;;;;;5075095;28;20205;-70
2022/05/28 09:00:08;;;;;;;6.57;1.60;;;14.20;1.00;;;;;;5070075;28;20197;-70
2022/05/28 09:02:38;;;;;;;8.33;2.07;;;14.10;99.90;;;;;;5074824;28;20206;-70
2022/05/28 09:05:11;;;;;;;8.07;1.97;;;14.10;1.00;;;;;;5083389;28;20210;-71
2022/05/28 09:07:39;;;;;;;5.60;1.87;;;14.30;1.00;;;;;;5070950;28;20209;-70
2022/05/28 09:10:06;;;;;;;7.50;1.70;;;14.30;1.00;;;;;;5063305;28;20496;-70
2022/05/28 09:12:42;;;;;;;8.53;2.13;;;14.50;1.00;;;;;;5069375;28;20203;-70
2022/05/28 09:15:10;;;;;;;6.43;2.00;;;14.60;1.00;;;;;;5066116;28;20213;-70
2022/05/28 09:17:41;;;;;;;8.20;2.40;;;14.80;1.00;;;;;;5071090;28;20591;-70
2022/05/28 09:20:12;;;;;;;5.23;1.60;;;14.80;1.00;;;;;;5074825;28;20197;-71
2022/05/28 09:22:39;;;;;;;7.23;1.80;;;14.90;6.10;;;;;;5066914;28;20210;-71
2022/05/28 09:25:07;;;;;;;5.43;2.53;;;15.20;1.00;;;;;;5074716;28;20209;-71
2022/05/28 09:27:44;;;;;;;5.90;1.50;;;15.40;1.00;;;;;;5082076;28;20197;-71
2022/05/28 09:30:32;;;;;;;6.73;1.50;;;15.50;1.00;;;;;;5062843;28;20248;-71
2022/05/28 09:33:15;;;;;;;11.07;2.20;;;15.50;99.90;;;;;;5069639;28;20196;-71
2022/05/28 09:35:55;;;;;;;7.63;1.97;;;15.30;99.90;;;;;;5082597;28;20209;-71
2022/05/28 09:38:28;;;;;;;6.20;1.43;;;15.10;1.00;;;;;;5073099;28;20199;-71
2022/05/28 09:41:01;;;;;;;6.63;1.57;;;15.90;99.90;;;;;;5062291;28;20211;-71
2022/05/28 09:43:50;;;;;;;3.07;1.67;;;16.00;32.60;;;;;;5056801;28;20564;-71
2022/05/28 09:46:26;;;;;;;7.07;2.17;;;16.30;1.00;;;;;;5079575;28;20199;-71
2022/05/28 09:49:01;;;;;;;4.73;1.63;;;16.50;1.00;;;;;;5061524;28;20267;-71
2022/05/28 09:51:33;;;;;;;4.90;1.40;;;16.50;1.00;;;;;;5071235;28;20640;-71
2022/05/28 09:54:20;;;;;;;5.57;1.67;;;16.60;1.00;;;;;;5061932;28;20218;-70
2022/05/28 09:56:54;;;;;;;5.13;1.60;;;16.80;1.00;;;;;;5066875;28;20235;-71
2022/05/28 09:59:30;;;;;;;5.17;1.30;;;16.40;1.00;;;;;;5057889;28;20214;-71
2022/05/28 10:02:00;;;;;;;5.13;1.30;;;16.60;1.00;;;;;;5058222;28;20198;-71
2022/05/28 10:04:30;;;;;;;3.53;1.05;;;16.50;1.00;;;;;;5073066;28;20206;-71
2022/05/28 10:07:00;;;;;;;2.73;1.40;;;17.10;1.00;;;;;;5054888;28;20670;-71
2022/05/28 10:09:28;;;;;;;3.47;1.50;;;17.30;1.00;;;;;;5070355;28;20221;-71
2022/05/28 10:11:56;;;;;;;3.75;1.30;;;17.50;99.90;;;;;;5070528;28;20779;-71
2022/05/28 10:14:28;;;;;;;6.47;1.70;;;17.80;1.00;;;;;;5067786;28;20203;-71
2022/05/28 10:16:57;;;;;;;7.38;1.65;;;17.20;99.90;;;;;;5067216;28;20606;-71
2022/05/28 10:19:29;;;;;;;6.72;1.58;;;17.20;1.00;;;;;;5059082;28;20208;-71
2022/05/28 10:21:59;;;;;;;7.63;1.88;;;16.80;1.00;;;;;;5065802;28;20214;-71
2022/05/28 10:24:30;;;;;;;7.80;2.03;;;16.10;1.00;;;;;;5061718;28;20207;-71
2022/05/28 10:27:01;;;;;;;6.93;2.20;;;15.50;99.90;;;;;;5064798;28;20273;-71
2022/05/28 10:29:36;;;;;;;5.53;1.77;;;14.30;1.00;;;;;;5066356;28;20222;-71
2022/05/28 10:32:03;;;;;;;6.83;2.00;;;13.10;99.90;;;;;;5069834;28;20648;-71
2022/05/28 10:34:33;;;;;;;5.80;1.70;;;12.50;99.90;;;;;;5070855;28;20578;-71
2022/05/28 10:37:09;;;;;;;7.17;2.20;;;11.80;99.90;;;;;;5063430;28;20532;-71
2022/05/28 10:39:37;;;;;;;6.87;1.80;;;11.70;99.90;;;;;;5062617;28;20199;-71
2022/05/28 10:42:05;;;;;;;6.30;2.27;;;11.90;99.90;;;;;;5068745;28;20657;-71
2022/05/28 10:44:34;;;;;;;7.70;2.20;;;12.10;99.90;;;;;;5061785;28;20580;-71
2022/05/28 10:47:33;;;;;;;5.73;2.20;;;12.40;99.90;;;;;;5064359;28;20272;-71
2022/05/28 10:50:11;;;;;;;4.40;2.00;;;12.70;99.90;;;;;;5063828;28;20226;-71
2022/05/28 10:52:51;;;;;;;10.17;2.40;;;12.70;99.90;;;;;;5067707;28;20210;-71
2022/05/28 10:55:24;;;;;;;6.77;2.10;;;12.80;99.90;;;;;;5065515;28;20679;-71
2022/05/28 10:58:03;;;;;;;6.00;2.00;;;13.20;99.90;;;;;;5066833;28;20649;-71
2022/05/28 11:00:42;;;;;;;4.97;2.30;;;13.30;99.90;;;;;;5065985;28;20201;-71
2022/05/28 11:03:30;;;;;;;6.30;2.40;;;13.50;99.90;;;;;;5062081;28;20217;-71
2022/05/28 11:06:26;;;;;;;9.87;3.13;;;13.70;99.90;;;;;;5061426;28;20256;-72
2022/05/28 11:09:02;;;;;;;5.87;2.30;;;14.40;99.90;;;;;;5064028;28;20252;-72
2022/05/28 11:11:44;;;;;;;10.73;2.20;;;14.40;99.90;;;;;;5071993;28;20202;-72
2022/05/28 11:14:32;;;;;;;7.60;2.53;;;14.90;99.90;;;;;;5066217;28;20206;-72
2022/05/28 11:17:15;;;;;;;8.00;2.37;;;15.20;99.90;;;;;;5063863;28;20206;-72
2022/05/28 11:20:00;;;;;;;9.23;2.70;;;15.40;51.00;;;;;;5071208;28;20213;-72
2022/05/28 11:22:54;;;;;;;7.80;2.80;;;15.90;99.90;;;;;;5060779;28;20206;-72
2022/05/28 11:25:26;;;;;;;10.83;2.67;;;15.90;99.90;;;;;;5060995;28;20221;-72
2022/05/28 11:28:08;;;;;;;6.83;2.00;;;14.90;99.90;;;;;;5068832;28;20198;-72
2022/05/28 11:30:39;;;;;;;6.47;1.90;;;14.10;1.00;;;;;;5063708;28;20272;-72
2022/05/28 11:33:13;;;;;;;14.03;3.27;;;13.50;1.00;;;;;;5066868;28;20320;-72
2022/05/28 11:35:44;;;;;;;10.00;2.80;;;13.20;99.90;;;;;;5065254;28;20206;-71
2022/05/28 11:38:19;;;;;;;8.50;2.50;;;12.90;99.90;;;;;;5065015;28;20521;-71
2022/05/28 11:40:56;;;;;;;8.43;2.40;;;13.00;99.90;;;;;;5061397;28;20781;-71
2022/05/28 11:43:26;;;;;;;7.30;2.50;;;13.10;99.90;;;;;;5068077;28;20204;-71
2022/05/28 11:45:59;;;;;;;50.37;5.23;;;13.30;99.90;;;;;;5060001;28;20195;-71
2022/05/28 11:51:27;;;;;;;7.97;3.33;;;14.20;99.90;;;;;;5077575;28;20617;-71
2022/05/28 11:51:28;;;;;;;55.27;5.60;;;14.50;99.90;;;;;;5057897;28;20311;-71
2022/05/28 11:54:00;;;;;;;9.67;2.70;;;14.60;99.90;;;;;;5072500;28;20194;-71
2022/05/28 11:56:28;;;;;;;7.60;2.20;;;15.10;99.90;;;;;;5065320;28;20202;-71
2022/05/28 11:58:59;;;;;;;8.70;2.30;;;15.30;99.90;;;;;;5055118;28;20202;-71
2022/05/28 12:01:30;;;;;;;5.97;2.40;;;15.10;99.90;;;;;;5059849;28;20703;-73
2022/05/28 12:03:59;;;;;;;5.33;3.10;;;15.00;99.90;;;;;;5063314;28;20206;-73
2022/05/28 12:06:30;;;;;;;7.63;2.27;;;15.30;99.90;;;;;;5057152;28;20257;-73
2022/05/28 12:09:06;;;;;;;10.23;2.67;;;15.40;99.90;;;;;;5059862;28;20194;-74
2022/05/28 12:11:40;;;;;;;7.27;2.20;;;15.00;99.90;;;;;;5069203;28;20644;-73
2022/05/28 12:14:19;;;;;;;9.87;2.17;;;15.00;99.90;;;;;;5061440;28;20203;-73
2022/05/28 12:16:59;;;;;;;7.30;2.00;;;15.40;99.90;;;;;;5060279;28;20711;-74
2022/05/28 12:19:27;;;;;;;8.37;2.33;;;16.20;99.90;;;;;;5060648;28;20645;-74
2022/05/28 12:22:05;;;;;;;7.77;2.03;;;15.30;99.90;;;;;;5062965;28;20259;-74
2022/05/28 12:24:33;;;;;;;12.87;2.60;;;14.90;99.90;;;;;;5055503;28;20230;-74
2022/05/28 12:27:14;;;;;;;5.80;2.37;;;15.50;99.90;;;;;;5063761;28;20764;-74
2022/05/28 12:29:55;;;;;;;5.37;2.20;;;14.90;99.90;;;;;;5065945;28;20226;-74
2022/05/28 12:32:24;;;;;;;9.43;2.87;;;14.60;99.90;;;;;;5061114;28;20240;-74
2022/05/28 12:34:55;;;;;;;7.00;2.10;;;14.80;99.90;;;;;;5066855;28;20609;-74
2022/05/28 12:37:25;;;;;;;8.97;2.27;;;15.30;99.90;;;;;;5051616;28;20714;-74
2022/05/28 12:40:06;;;;;;;6.90;2.03;;;15.30;99.90;;;;;;5069302;28;20194;-74
2022/05/28 12:42:33;;;;;;;6.87;1.80;;;15.80;99.90;;;;;;5063129;28;20263;-74
2022/05/28 12:45:14;;;;;;;7.23;1.97;;;16.10;98.20;;;;;;5065204;28;20202;-74
2022/05/28 12:47:42;;;;;;;5.23;1.80;;;16.60;96.00;;;;;;5061723;28;20251;-74
2022/05/28 12:50:18;;;;;;;10.27;2.10;;;17.00;91.10;;;;;;5058216;28;20292;-74
2022/05/28 12:52:54;;;;;;;7.13;1.90;;;17.10;84.10;;;;;;5069238;28;20201;-74
2022/05/28 12:55:31;;;;;;;4.37;1.53;;;17.60;75.50;;;;;;5070161;28;20243;-74
2022/05/28 12:58:02;;;;;;;4.70;1.60;;;16.80;56.70;;;;;;5056604;28;20205;-74
2022/05/28 13:00:36;;;;;;;5.00;1.53;;;17.00;64.70;;;;;;5058282;28;20688;-74
2022/05/28 13:03:08;;;;;;;5.43;1.33;;;16.50;65.20;;;;;;5059320;28;20247;-74
2022/05/28 13:05:40;;;;;;;6.20;1.67;;;16.50;68.60;;;;;;5060765;28;20228;-74
2022/05/28 13:08:10;;;;;;;4.13;1.53;;;16.20;62.40;;;;;;5053754;28;20207;-74
2022/05/28 13:10:38;;;;;;;7.73;2.20;;;15.90;61.70;;;;;;5053252;28;20669;-74
2022/05/28 13:13:19;;;;;;;6.97;1.80;;;15.70;57.40;;;;;;5060446;28;20221;-74